createdAt,value
2022-10-19T00:01:44.785Z,12.95
2022-10-19T00:04:11.631Z,9.87
2022-10-19T00:06:38.546Z,10.50
2022-10-19T00:09:14.160Z,14.27
2022-10-19T00:11:44.036Z,13.63
2022-10-19T00:14:28.873Z,15.32
2022-10-19T00:16:56.290Z,16.93
2022-10-19T00:19:26.095Z,12.82
2022-10-19T00:21:53.139Z,11.48
2022-10-19T00:24:20.099Z,16.05
2022-10-19T00:26:47.295Z,18.20
2022-10-19T00:29:15.187Z,11.90
2022-10-19T00:31:42.394Z,16.00
2022-10-19T00:34:09.812Z,13.68
2022-10-19T00:36:39.767Z,11.52
2022-10-19T00:39:10.198Z,13.70
2022-10-19T00:41:37.964Z,12.53
2022-10-19T00:44:26.887Z,16.30
2022-10-19T00:46:54.200Z,18.10
2022-10-19T00:49:24.822Z,16.48
2022-10-19T00:51:54.829Z,14.75
2022-10-19T00:54:22.467Z,15.03
2022-10-19T00:56:51.880Z,17.13
2022-10-19T00:59:21.356Z,13.75
2022-10-19T01:01:50.027Z,18.33
2022-10-19T01:04:18.340Z,17.38
2022-10-19T01:06:45.319Z,20.27
2022-10-19T01:09:12.281Z,17.45
2022-10-19T01:11:45.098Z,18.05
2022-10-19T01:14:21.038Z,14.27
2022-10-19T01:16:55.626Z,16.23
2022-10-19T01:20:16.736Z,16.73
2022-10-19T01:22:55.511Z,14.18
2022-10-19T01:25:53.956Z,16.85
2022-10-19T01:28:29.769Z,17.35
2022-10-19T01:31:15.344Z,15.95
2022-10-19T01:34:12.128Z,15.30
2022-10-19T01:36:48.620Z,17.25
2022-10-19T01:39:38.178Z,11.68
2022-10-19T01:42:28.638Z,11.63
2022-10-19T01:45:06.948Z,14.35
2022-10-19T01:48:06.846Z,11.80
2022-10-19T01:51:02.185Z,12.55
2022-10-19T01:53:33.043Z,13.68
2022-10-19T01:56:01.875Z,13.57
2022-10-19T01:58:33.638Z,13.60
2022-10-19T02:01:04.732Z,13.27
2022-10-19T02:03:33.634Z,13.55
2022-10-19T02:06:02.653Z,14.93
2022-10-19T02:08:35.084Z,14.82
2022-10-19T02:11:02.917Z,13.57
2022-10-19T02:13:30.665Z,11.30
2022-10-19T02:16:01.467Z,10.23
2022-10-19T02:18:37.755Z,10.93
2022-10-19T02:21:06.208Z,11.52
2022-10-19T02:23:34.079Z,11.63
2022-10-19T02:26:01.016Z,11.07
2022-10-19T02:28:28.916Z,12.15
2022-10-19T02:30:56.407Z,12.20
2022-10-19T02:33:23.486Z,11.13
2022-10-19T02:35:50.543Z,9.98
2022-10-19T02:38:21.424Z,10.57
2022-10-19T02:40:57.670Z,15.55
2022-10-19T02:43:26.799Z,10.68
2022-10-19T02:46:02.351Z,10.43
2022-10-19T02:48:32.041Z,14.20
2022-10-19T02:50:58.832Z,12.93
2022-10-19T02:53:25.547Z,9.50
2022-10-19T02:55:52.578Z,10.43
2022-10-19T02:58:21.993Z,10.90
2022-10-19T03:00:48.809Z,11.02
2022-10-19T03:03:15.645Z,12.13
2022-10-19T03:05:42.453Z,11.10
2022-10-19T03:08:09.317Z,9.93
2022-10-19T03:10:36.270Z,11.35
2022-10-19T03:13:03.093Z,12.65
2022-10-19T03:15:30.005Z,10.70
2022-10-19T03:17:57.226Z,10.25
2022-10-19T03:20:24.206Z,9.15
2022-10-19T03:25:18.334Z,10.00
2022-10-19T03:27:45.166Z,10.27
2022-10-19T03:30:12.080Z,10.00
2022-10-19T03:32:38.950Z,10.00
2022-10-19T03:35:06.329Z,9.57
2022-10-19T03:37:33.454Z,11.88
2022-10-19T03:40:00.618Z,9.70
2022-10-19T03:42:27.446Z,8.75
2022-10-19T03:44:54.176Z,9.70
2022-10-19T03:47:20.951Z,10.73
2022-10-19T03:49:50.202Z,11.25
2022-10-19T03:52:21.101Z,8.40
2022-10-19T03:54:50.864Z,11.73
2022-10-19T03:57:17.612Z,9.55
2022-10-19T03:59:44.398Z,10.73
2022-10-19T04:02:11.212Z,11.18
2022-10-19T04:04:38.097Z,7.50
2022-10-19T04:07:04.910Z,6.80
2022-10-19T04:09:31.619Z,9.93
2022-10-19T04:11:58.410Z,9.75
2022-10-19T04:14:32.622Z,9.80
2022-10-19T04:17:01.645Z,9.97
2022-10-19T04:19:28.513Z,9.52
2022-10-19T04:21:55.406Z,10.85
2022-10-19T04:24:22.288Z,9.32
2022-10-19T04:26:54.189Z,8.27
2022-10-19T04:29:25.105Z,8.90
2022-10-19T04:31:54.834Z,7.85
2022-10-19T04:34:22.053Z,10.55
2022-10-19T04:36:48.844Z,9.43
2022-10-19T04:39:15.599Z,8.48
2022-10-19T04:41:42.412Z,12.73
2022-10-19T04:44:10.013Z,10.35
2022-10-19T04:46:38.262Z,10.27
2022-10-19T04:49:06.727Z,16.20
2022-10-19T04:51:34.458Z,8.10
2022-10-19T04:54:03.764Z,8.77
2022-10-19T04:56:32.305Z,11.40
2022-10-19T04:59:00.428Z,8.57
2022-10-19T05:01:29.154Z,11.40
2022-10-19T05:03:58.654Z,9.27
2022-10-19T05:06:26.458Z,10.63
2022-10-19T05:08:53.644Z,12.77
2022-10-19T05:11:20.825Z,11.32
2022-10-19T05:13:48.127Z,8.10
2022-10-19T05:16:18.985Z,8.52
2022-10-19T05:18:56.118Z,10.83
2022-10-19T05:21:24.054Z,12.10
2022-10-19T05:23:52.811Z,11.23
2022-10-19T05:26:21.905Z,12.00
2022-10-19T05:28:50.469Z,12.50
2022-10-19T05:31:20.186Z,13.70
2022-10-19T05:33:47.571Z,7.63
2022-10-19T05:36:17.279Z,7.85
2022-10-19T05:38:45.701Z,10.77
2022-10-19T05:41:13.329Z,11.63
2022-10-19T05:43:41.920Z,14.30
2022-10-19T05:46:19.100Z,13.55
2022-10-19T05:48:46.686Z,13.85
2022-10-19T05:51:16.195Z,14.63
2022-10-19T05:53:43.757Z,14.85
2022-10-19T05:56:18.110Z,10.97
2022-10-19T05:58:45.306Z,13.20
2022-10-19T06:01:12.705Z,13.15
2022-10-19T06:03:39.874Z,12.45
2022-10-19T06:06:08.668Z,13.15
2022-10-19T06:08:36.249Z,10.97
2022-10-19T06:11:14.300Z,9.57
2022-10-19T06:13:42.710Z,11.13
2022-10-19T06:16:10.761Z,11.43
2022-10-19T06:18:38.049Z,9.05
2022-10-19T06:21:12.049Z,9.13
2022-10-19T06:23:39.608Z,8.13
2022-10-19T06:26:12.313Z,9.85
2022-10-19T06:28:40.477Z,12.85
2022-10-19T06:31:09.195Z,12.77
2022-10-19T06:33:36.807Z,10.53
2022-10-19T06:36:16.437Z,12.05
2022-10-19T06:38:43.926Z,13.23
2022-10-19T06:41:11.698Z,11.13
2022-10-19T06:43:38.793Z,12.35
2022-10-19T06:46:07.405Z,10.10
2022-10-19T06:48:34.688Z,11.00
2022-10-19T06:51:06.217Z,10.52
2022-10-19T06:53:34.411Z,13.75
2022-10-19T06:56:04.073Z,9.90
2022-10-19T06:58:31.258Z,8.23
2022-10-19T07:00:59.583Z,10.52
2022-10-19T07:03:27.492Z,9.65
2022-10-19T07:05:59.794Z,8.60
2022-10-19T07:08:28.607Z,12.07
2022-10-19T07:10:58.802Z,10.20
2022-10-19T07:13:26.760Z,10.45
2022-10-19T07:16:02.853Z,8.38
2022-10-19T07:18:29.782Z,10.20
2022-10-19T07:20:58.494Z,11.57
2022-10-19T07:23:27.010Z,10.33
2022-10-19T07:25:55.489Z,8.80
2022-10-19T07:28:22.593Z,9.57
2022-10-19T07:30:49.428Z,10.55
2022-10-19T07:35:47.991Z,7.87
2022-10-19T07:38:14.688Z,6.80
2022-10-19T07:40:44.853Z,8.27
2022-10-19T07:43:14.119Z,9.70
2022-10-19T07:45:40.962Z,8.30
2022-10-19T07:48:08.333Z,8.00
2022-10-19T07:50:35.093Z,10.98
2022-10-19T07:53:05.212Z,9.32
2022-10-19T07:55:34.290Z,6.47
2022-10-19T07:58:02.043Z,9.20
2022-10-19T08:00:29.681Z,9.30
2022-10-19T08:03:23.069Z,7.25
2022-10-19T08:05:43.565Z,8.05
2022-10-19T08:08:10.639Z,8.02
2022-10-19T08:10:37.489Z,6.35
2022-10-19T08:13:04.248Z,8.07
2022-10-19T08:15:31.086Z,11.70
2022-10-19T08:17:57.963Z,8.85
2022-10-19T08:20:24.710Z,8.45
2022-10-19T08:22:56.372Z,10.10
2022-10-19T08:25:25.798Z,8.63
2022-10-19T08:27:52.591Z,6.75
2022-10-19T08:30:19.730Z,7.55
2022-10-19T08:32:46.511Z,11.60
2022-10-19T08:35:13.339Z,5.68
2022-10-19T08:37:44.690Z,5.57
2022-10-19T08:40:23.962Z,5.20
2022-10-19T08:43:02.494Z,4.93
2022-10-19T08:48:25.170Z,5.00
2022-10-19T08:50:52.953Z,9.60
2022-10-19T08:53:54.299Z,8.27
2022-10-19T08:56:52.065Z,8.13
2022-10-19T08:59:38.197Z,6.03
2022-10-19T09:02:16.194Z,8.60
2022-10-19T09:04:54.587Z,5.43
2022-10-19T09:07:31.012Z,5.13
2022-10-19T09:10:06.703Z,4.85
2022-10-19T09:12:55.090Z,5.15
2022-10-19T09:15:46.350Z,6.03
2022-10-19T09:18:20.144Z,5.63
2022-10-19T09:20:55.807Z,6.18
2022-10-19T09:23:47.386Z,6.95
2022-10-19T09:26:18.547Z,7.68
2022-10-19T09:28:54.732Z,7.45
2022-10-19T09:31:40.967Z,5.93
2022-10-19T09:34:29.869Z,5.78
2022-10-19T09:36:58.987Z,5.95
2022-10-19T09:39:29.867Z,6.85
2022-10-19T09:42:22.954Z,6.60
2022-10-19T09:44:51.940Z,6.17
2022-10-19T09:47:47.729Z,4.80
2022-10-19T09:50:24.645Z,9.40
2022-10-19T09:53:02.565Z,5.93
2022-10-19T09:55:39.760Z,6.63
2022-10-19T09:58:17.959Z,5.03
2022-10-19T10:00:47.613Z,5.88
2022-10-19T10:03:39.299Z,10.90
2022-10-19T10:06:13.368Z,7.45
2022-10-19T10:08:47.002Z,5.82
2022-10-19T10:11:24.841Z,5.27
2022-10-19T10:13:54.239Z,5.22
2022-10-19T10:16:23.596Z,6.47
2022-10-19T10:18:59.601Z,5.35
2022-10-19T10:21:32.385Z,4.90
2022-10-19T10:24:12.926Z,3.90
2022-10-19T10:26:46.342Z,4.25
2022-10-19T10:29:20.262Z,6.93
2022-10-19T10:31:56.562Z,6.35
2022-10-19T10:34:53.968Z,7.00
2022-10-19T10:37:28.446Z,5.30
2022-10-19T10:40:00.316Z,6.90
2022-10-19T10:42:46.157Z,7.20
2022-10-19T10:45:32.679Z,6.07
2022-10-19T10:48:27.758Z,6.10
2022-10-19T10:50:55.456Z,4.30
2022-10-19T10:53:35.719Z,6.68
2022-10-19T10:56:04.677Z,4.03
2022-10-19T10:58:47.882Z,4.57
2022-10-19T11:01:23.881Z,9.10
2022-10-19T11:04:06.339Z,3.73
2022-10-19T11:06:37.660Z,6.88
2022-10-19T11:09:08.586Z,8.80
2022-10-19T11:11:39.506Z,3.85
2022-10-19T11:14:29.591Z,4.90
2022-10-19T11:17:00.441Z,6.17
2022-10-19T11:19:32.394Z,8.65
2022-10-19T11:22:08.073Z,7.10
2022-10-19T11:24:48.611Z,5.15
2022-10-19T11:27:32.231Z,4.13
2022-10-19T11:30:07.141Z,5.17
2022-10-19T11:32:52.108Z,3.58
2022-10-19T11:35:39.201Z,3.80
2022-10-19T11:38:28.731Z,4.70
2022-10-19T11:41:19.051Z,3.55
2022-10-19T11:44:11.163Z,5.03
2022-10-19T11:46:58.191Z,5.45
2022-10-19T11:49:37.563Z,4.30
2022-10-19T11:52:17.394Z,3.33
2022-10-19T11:54:44.211Z,5.72
2022-10-19T11:57:25.409Z,6.40
2022-10-19T12:00:37.525Z,5.95
2022-10-19T12:03:36.407Z,8.77
2022-10-19T12:06:47.544Z,6.07
2022-10-19T12:09:46.623Z,5.63
2022-10-19T12:12:31.761Z,9.37
2022-10-19T12:15:05.861Z,11.07
2022-10-19T12:17:37.049Z,4.95
2022-10-19T12:20:22.677Z,5.53
2022-10-19T12:22:50.521Z,8.68
2022-10-19T12:25:19.737Z,7.37
2022-10-19T12:27:49.101Z,5.05
2022-10-19T12:30:22.712Z,6.45
2022-10-19T12:33:03.383Z,5.20
2022-10-19T12:35:52.969Z,7.60
2022-10-19T12:38:27.739Z,14.93
2022-10-19T12:41:16.307Z,7.78
2022-10-19T12:44:01.747Z,7.60
2022-10-19T12:46:28.463Z,5.15
2022-10-19T12:49:38.938Z,8.15
2022-10-19T12:52:07.896Z,5.47
2022-10-19T12:54:37.917Z,7.55
2022-10-19T12:57:29.976Z,4.78
2022-10-19T13:00:23.038Z,4.85
2022-10-19T13:03:00.873Z,4.93
2022-10-19T13:05:30.323Z,8.33
2022-10-19T13:07:57.806Z,8.23
2022-10-19T13:10:27.573Z,7.50
2022-10-19T13:12:54.771Z,7.47
2022-10-19T13:15:36.873Z,8.30
2022-10-19T13:18:16.858Z,6.87
2022-10-19T13:20:53.227Z,4.63
2022-10-19T13:23:29.068Z,6.63
2022-10-19T13:26:32.850Z,4.32
2022-10-19T13:29:00.220Z,5.63
2022-10-19T13:31:31.528Z,5.63
2022-10-19T13:33:58.773Z,6.03
2022-10-19T13:36:25.772Z,9.38
2022-10-19T13:38:58.620Z,6.45
2022-10-19T13:41:27.545Z,5.32
2022-10-19T13:44:16.084Z,4.30
2022-10-19T13:46:54.043Z,5.22
2022-10-19T13:49:32.765Z,5.28
2022-10-19T13:52:08.748Z,9.20
2022-10-19T13:54:44.304Z,11.38
2022-10-19T13:57:17.856Z,10.70
2022-10-19T14:00:15.377Z,4.13
2022-10-19T14:03:09.359Z,8.02
2022-10-19T14:05:47.363Z,5.25
2022-10-19T14:08:20.200Z,8.57
2022-10-19T14:11:01.148Z,5.23
2022-10-19T14:13:29.186Z,3.85
2022-10-19T14:15:57.686Z,6.13
2022-10-19T14:18:28.987Z,6.30
2022-10-19T14:21:00.551Z,7.70
2022-10-19T14:23:32.662Z,8.77
2022-10-19T14:26:06.620Z,7.78
2022-10-19T14:28:34.048Z,5.68
2022-10-19T14:31:02.808Z,4.15
2022-10-19T14:33:35.973Z,5.68
2022-10-19T14:36:02.880Z,3.90
2022-10-19T14:38:36.632Z,6.53
2022-10-19T14:41:06.277Z,4.28
2022-10-19T14:43:34.698Z,4.65
2022-10-19T14:46:07.662Z,7.25
2022-10-19T14:48:36.147Z,5.37
2022-10-19T14:51:09.965Z,8.85
2022-10-19T14:53:48.506Z,5.55
2022-10-19T14:56:27.328Z,10.50
2022-10-19T14:58:59.269Z,6.85
2022-10-19T15:01:26.174Z,4.17
2022-10-19T15:03:53.291Z,7.63
2022-10-19T15:06:26.797Z,6.43
2022-10-19T15:09:04.198Z,7.35
2022-10-19T15:11:37.523Z,7.47
2022-10-19T15:14:12.058Z,6.57
2022-10-19T15:16:53.421Z,6.18
2022-10-19T15:19:41.038Z,10.38
2022-10-19T15:22:21.720Z,5.70
2022-10-19T15:25:07.163Z,5.72
2022-10-19T15:27:35.057Z,6.60
2022-10-19T15:30:06.278Z,6.45
2022-10-19T15:32:38.365Z,6.50
2022-10-19T15:35:12.866Z,6.05
2022-10-19T15:37:43.426Z,5.75
2022-10-19T15:40:24.214Z,3.40
2022-10-19T15:42:51.118Z,6.45
2022-10-19T15:45:36.376Z,4.57
2022-10-19T15:48:26.355Z,5.45
2022-10-19T15:50:54.668Z,5.57
2022-10-19T15:53:22.261Z,5.20
2022-10-19T15:55:49.114Z,4.30
2022-10-19T15:58:16.327Z,6.80
2022-10-19T16:00:44.856Z,4.30
2022-10-19T16:03:11.673Z,4.18
2022-10-19T16:05:38.619Z,4.67
2022-10-19T16:08:07.885Z,4.63
2022-10-19T16:10:37.046Z,4.65
2022-10-19T16:13:03.770Z,5.97
2022-10-19T16:15:30.548Z,4.80
2022-10-19T16:17:59.880Z,5.67
2022-10-19T16:20:28.534Z,5.53
2022-10-19T16:22:55.378Z,6.95
2022-10-19T16:25:22.365Z,4.53
2022-10-19T16:27:49.352Z,5.70
2022-10-19T16:30:16.313Z,9.10
2022-10-19T16:32:43.196Z,4.78
2022-10-19T16:35:10.272Z,6.15
2022-10-19T16:37:37.415Z,5.03
2022-10-19T16:40:05.243Z,5.82
2022-10-19T16:42:32.749Z,7.87
2022-10-19T16:44:59.643Z,9.63
2022-10-19T16:47:26.383Z,6.03
2022-10-19T16:49:59.935Z,7.78
2022-10-19T16:52:33.035Z,8.23
2022-10-19T16:55:00.473Z,6.43
2022-10-19T16:57:27.374Z,4.70
2022-10-19T16:59:54.418Z,5.32
2022-10-19T17:02:22.043Z,6.18
2022-10-19T17:04:48.872Z,6.05
2022-10-19T17:07:15.894Z,6.57
2022-10-19T17:09:43.265Z,6.22
2022-10-19T17:12:11.334Z,5.53
2022-10-19T17:14:40.327Z,7.63
2022-10-19T17:17:08.045Z,6.18
2022-10-19T17:19:36.847Z,5.83
2022-10-19T17:22:05.105Z,10.10
2022-10-19T17:24:32.285Z,11.20
2022-10-19T17:27:03.189Z,9.57
2022-10-19T17:29:30.108Z,7.72
2022-10-19T17:31:57.632Z,9.90
2022-10-19T17:34:24.428Z,10.40
2022-10-19T17:36:51.207Z,7.07
2022-10-19T17:39:25.784Z,9.63
2022-10-19T17:42:01.162Z,7.20
2022-10-19T17:44:30.425Z,7.27
2022-10-19T17:46:57.353Z,8.73
2022-10-19T17:49:24.344Z,10.05
2022-10-19T17:51:52.620Z,8.65
2022-10-19T17:54:19.511Z,9.35
2022-10-19T17:56:46.266Z,12.20
2022-10-19T17:59:13.782Z,9.82
2022-10-19T18:01:40.926Z,10.75
2022-10-19T18:04:07.806Z,9.00
2022-10-19T18:06:36.512Z,9.55
2022-10-19T18:09:06.092Z,7.43
2022-10-19T18:11:37.152Z,9.40
2022-10-19T18:14:05.705Z,9.07
2022-10-19T18:16:38.477Z,10.63
2022-10-19T18:19:06.245Z,8.75
2022-10-19T18:21:38.387Z,8.70
2022-10-19T18:24:07.451Z,8.25
2022-10-19T18:26:35.999Z,10.18
2022-10-19T18:29:13.254Z,9.10
2022-10-19T18:31:40.904Z,8.68
2022-10-19T18:34:12.272Z,7.77
2022-10-19T18:36:39.138Z,9.55
2022-10-19T18:39:07.448Z,7.38
2022-10-19T18:41:34.597Z,7.28
2022-10-19T18:44:04.999Z,12.55
2022-10-19T18:46:36.688Z,10.53
2022-10-19T18:49:05.638Z,5.90
2022-10-19T18:51:32.678Z,9.75
2022-10-19T18:53:59.420Z,6.55
2022-10-19T18:56:29.293Z,7.40
2022-10-19T18:58:56.936Z,8.43
2022-10-19T19:01:26.829Z,9.13
2022-10-19T19:03:56.295Z,7.90
2022-10-19T19:06:25.689Z,6.75
2022-10-19T19:08:57.016Z,8.65
2022-10-19T19:11:30.666Z,8.37
2022-10-19T19:14:06.212Z,9.32
2022-10-19T19:16:35.684Z,13.75
2022-10-19T19:19:03.080Z,8.00
2022-10-19T19:21:31.682Z,7.40
2022-10-19T19:24:04.312Z,11.77
2022-10-19T19:26:36.753Z,8.35
2022-10-19T19:29:04.455Z,8.20
2022-10-19T19:31:31.538Z,9.85
2022-10-19T19:34:00.925Z,8.65
2022-10-19T19:36:28.247Z,8.67
2022-10-19T19:38:59.073Z,12.65
2022-10-19T19:41:26.198Z,12.82
2022-10-19T19:43:53.093Z,8.13
2022-10-19T19:46:20.852Z,8.32
2022-10-19T19:48:48.914Z,10.10
2022-10-19T19:51:20.460Z,9.48
2022-10-19T19:53:48.174Z,8.02
2022-10-19T19:56:16.405Z,9.75
2022-10-19T19:58:44.702Z,9.38
2022-10-19T20:01:19.939Z,9.63
2022-10-19T20:03:47.681Z,8.25
2022-10-19T20:06:18.674Z,13.80
2022-10-19T20:08:47.680Z,7.60
2022-10-19T20:11:17.473Z,9.90
2022-10-19T20:13:45.648Z,8.07
2022-10-19T20:16:15.531Z,7.40
2022-10-19T20:18:45.190Z,10.63
2022-10-19T20:21:12.608Z,8.20
2022-10-19T20:23:39.372Z,10.63
2022-10-19T20:26:06.697Z,8.17
2022-10-19T20:28:33.688Z,10.10
2022-10-19T20:31:06.534Z,6.10
2022-10-19T20:33:35.710Z,8.45
2022-10-19T20:36:09.013Z,7.68
2022-10-19T20:38:38.486Z,7.47
2022-10-19T20:41:09.580Z,8.98
2022-10-19T20:43:37.507Z,9.90
2022-10-19T20:46:08.940Z,7.80
2022-10-19T20:48:35.746Z,10.45
2022-10-19T20:51:15.671Z,11.70
2022-10-19T20:53:46.233Z,9.43
2022-10-19T20:56:15.315Z,10.43
2022-10-19T20:58:43.603Z,7.53
2022-10-19T21:01:13.939Z,9.15
2022-10-19T21:03:49.116Z,10.63
2022-10-19T21:06:15.880Z,8.65
2022-10-19T21:08:42.997Z,8.15
2022-10-19T21:11:17.487Z,9.15
2022-10-19T21:13:44.958Z,6.47
2022-10-19T21:16:17.316Z,8.50
2022-10-19T21:18:45.578Z,10.88
2022-10-19T21:21:24.023Z,11.13
2022-10-19T21:23:55.345Z,9.80
2022-10-19T21:26:24.311Z,7.47
2022-10-19T21:28:54.362Z,8.90
2022-10-19T21:31:23.026Z,11.35
2022-10-19T21:33:50.791Z,9.77
2022-10-19T21:36:17.979Z,11.85
2022-10-19T21:38:45.566Z,9.82
2022-10-19T21:41:14.976Z,9.27
2022-10-19T21:43:42.057Z,9.90
2022-10-19T21:46:12.461Z,7.90
2022-10-19T21:48:39.775Z,11.73
2022-10-19T21:51:34.565Z,7.10
2022-10-19T21:54:02.305Z,10.50
2022-10-19T21:56:29.546Z,8.30
2022-10-19T21:58:56.751Z,11.23
2022-10-19T22:01:26.908Z,8.93
2022-10-19T22:04:02.195Z,8.05
2022-10-19T22:06:31.228Z,12.50
2022-10-19T22:08:58.424Z,14.48
2022-10-19T22:11:26.765Z,9.73
2022-10-19T22:13:58.229Z,9.70
2022-10-19T22:16:27.159Z,11.30
2022-10-19T22:18:54.914Z,8.53
2022-10-19T22:21:28.703Z,8.82
2022-10-19T22:24:05.407Z,11.05
2022-10-19T22:26:47.152Z,7.75
2022-10-19T22:29:14.631Z,9.98
2022-10-19T22:31:41.499Z,7.33
2022-10-19T22:34:12.202Z,9.45
2022-10-19T22:36:39.017Z,8.80
2022-10-19T22:39:06.713Z,10.52
2022-10-19T22:42:04.989Z,9.10
2022-10-19T22:44:32.468Z,8.87
2022-10-19T22:46:59.621Z,10.57
2022-10-19T22:49:26.358Z,9.55
2022-10-19T22:51:53.252Z,9.15
2022-10-19T22:54:20.000Z,9.23
2022-10-19T22:56:46.896Z,9.80
2022-10-19T22:59:13.725Z,8.07
2022-10-19T23:01:40.673Z,10.50
2022-10-19T23:04:07.665Z,8.40
2022-10-19T23:06:34.526Z,7.95
2022-10-19T23:09:01.453Z,9.83
2022-10-19T23:11:28.327Z,7.88
2022-10-19T23:13:55.156Z,9.40
2022-10-19T23:16:21.972Z,10.93
2022-10-19T23:18:48.772Z,12.75
2022-10-19T23:21:16.890Z,9.07
2022-10-19T23:23:43.856Z,9.07
2022-10-19T23:26:12.548Z,11.85
2022-10-19T23:28:41.126Z,8.57
2022-10-19T23:31:19.909Z,7.82
2022-10-19T23:33:47.326Z,10.97
2022-10-19T23:36:22.703Z,11.77
2022-10-19T23:38:51.310Z,9.60
2022-10-19T23:41:18.963Z,9.88
2022-10-19T23:43:46.149Z,8.57
2022-10-19T23:46:13.368Z,8.47
2022-10-19T23:48:41.653Z,10.65
2022-10-19T23:51:11.099Z,10.68
2022-10-19T23:53:41.436Z,10.15
2022-10-19T23:56:18.801Z,8.45
2022-10-19T23:58:46.392Z,11.43
